Time;durP1;ratioP1;P1;durP2;ratioP2;P2;SDS_P1;SDS_P2;PMS_P1;PMS_P2;Temp;Humidity;BMP_temperature;BMP_pressure;BME280_temperature;BME280_humidity;BME280_pressure;Samples;Min_cycle;Max_cycle;Signal;HPM_P1;HPM_P2
2022/04/04 00:02:14;;;;;;;3.70;3.17;;;0.10;97.50;;;0.94;94.79;98516.72;4978271;28;20565;-75
2022/04/04 00:04:44;;;;;;;4.70;3.50;;;0.10;97.50;;;0.94;94.82;98511.56;4975996;28;20499;-75
2022/04/04 00:07:14;;;;;;;7.00;4.40;;;0.10;97.50;;;0.85;94.24;98507.94;4974601;28;20553;-75
2022/04/04 00:09:42;;;;;;;9.67;4.23;;;0.10;97.50;;;0.86;95.51;98516.50;4976332;28;20863;-74
2022/04/04 00:12:13;;;;;;;5.20;3.63;;;0.00;98.10;;;0.84;96.17;98502.91;4974681;28;20836;-75
2022/04/04 00:14:42;;;;;;;7.10;3.97;;;0.00;97.90;;;0.82;95.51;98512.50;4974274;28;20472;-75
2022/04/04 00:17:13;;;;;;;6.53;3.67;;;0.00;97.60;;;0.74;95.74;98500.22;4978279;28;20846;-75
2022/04/04 00:19:45;;;;;;;4.87;3.73;;;-0.10;97.80;;;0.70;95.62;98492.81;4976402;28;20464;-75
2022/04/04 00:22:15;;;;;;;4.90;3.67;;;0.00;97.80;;;0.71;96.10;98494.47;4973194;28;20459;-75
2022/04/04 00:24:46;;;;;;;5.30;4.07;;;-0.20;98.20;;;0.72;96.73;98490.97;4974884;28;20500;-75
2022/04/04 00:27:16;;;;;;;3.50;2.90;;;-0.20;97.90;;;0.71;96.60;98495.28;4976731;28;20479;-74
2022/04/04 00:29:44;;;;;;;5.07;3.97;;;-0.20;97.80;;;0.66;96.12;98487.09;4978726;28;20460;-75
2022/04/04 00:32:16;;;;;;;4.40;3.57;;;-0.10;97.70;;;0.66;97.10;98494.00;4973396;28;20465;-75
2022/04/04 00:34:45;;;;;;;19.50;4.37;;;-0.20;98.20;;;0.69;96.82;98498.94;4973821;28;20476;-74
2022/04/04 00:37:14;;;;;;;5.93;4.00;;;-0.20;98.20;;;0.70;97.35;98500.53;4975678;28;20468;-75
2022/04/04 00:39:44;;;;;;;4.77;3.57;;;-0.20;98.10;;;0.66;96.99;98494.00;4977436;28;20471;-75
2022/04/04 00:42:16;;;;;;;8.03;3.50;;;-0.20;97.80;;;0.60;96.27;98489.28;4975348;28;20463;-74
2022/04/04 00:44:47;;;;;;;3.90;3.50;;;-0.10;97.50;;;0.54;96.74;98488.00;4976164;28;20492;-74
2022/04/04 00:47:19;;;;;;;4.30;3.47;;;-0.20;97.70;;;0.54;97.46;98485.44;4978011;28;20474;-75
2022/04/04 00:49:49;;;;;;;4.67;3.70;;;-0.30;97.90;;;0.54;97.71;98488.00;4979731;28;20563;-75
2022/04/04 00:52:18;;;;;;;5.07;3.27;;;-0.40;98.20;;;0.52;96.96;98485.53;4977560;28;20756;-74
2022/04/04 00:54:49;;;;;;;3.33;3.07;;;-0.30;97.90;;;0.49;96.89;98482.38;4977571;28;20471;-75
2022/04/04 00:57:19;;;;;;;4.10;3.70;;;-0.30;98.10;;;0.47;96.80;98479.09;4977569;28;20814;-73
2022/04/04 00:59:51;;;;;;;4.50;3.67;;;-0.30;97.80;;;0.46;97.24;98475.72;4976737;28;20448;-74
2022/04/04 01:02:23;;;;;;;4.57;3.40;;;-0.30;98.20;;;0.43;97.21;98475.94;4978159;28;20484;-74
2022/04/04 01:04:52;;;;;;;4.50;3.90;;;-0.30;98.00;;;0.41;97.30;98477.00;4977422;28;20494;-75
2022/04/04 01:07:22;;;;;;;5.93;3.67;;;-0.40;97.90;;;0.43;97.94;98475.13;4980136;28;20467;-75
2022/04/04 01:09:53;;;;;;;5.53;3.40;;;-0.40;98.10;;;0.40;97.97;98473.59;4977571;28;20448;-75
2022/04/04 01:12:23;;;;;;;6.63;3.70;;;-0.40;98.10;;;0.38;97.51;98472.09;4976638;28;20472;-75
2022/04/04 01:14:54;;;;;;;11.30;4.27;;;-0.40;98.40;;;0.32;97.35;98463.03;4973564;28;20511;-75
2022/04/04 01:17:25;;;;;;;5.10;3.10;;;-0.30;97.90;;;0.24;97.42;98467.94;4976777;28;20472;-74
2022/04/04 01:19:56;;;;;;;6.50;4.00;;;-0.40;97.70;;;0.24;98.41;98459.41;4975329;28;20488;-75
2022/04/04 01:22:25;;;;;;;3.57;3.10;;;-0.60;98.10;;;0.26;98.24;98465.25;4973592;28;20460;-75
2022/04/04 01:24:59;;;;;;;3.63;3.23;;;-0.50;98.00;;;0.24;97.64;98465.38;4974791;28;20499;-75
2022/04/04 01:27:30;;;;;;;4.60;3.40;;;-0.40;98.00;;;0.22;98.03;98456.94;4974884;28;21011;-74
2022/04/04 01:30:01;;;;;;;4.87;4.20;;;-0.60;97.90;;;0.16;97.71;98451.44;4974480;28;20996;-74
2022/04/04 01:32:33;;;;;;;6.47;4.10;;;-0.50;97.90;;;0.11;97.85;98449.19;4974581;28;21013;-75
2022/04/04 01:35:03;;;;;;;4.47;3.43;;;-0.60;98.20;;;0.10;98.45;98447.56;4972801;28;20488;-74
2022/04/04 01:37:32;;;;;;;6.57;3.93;;;-0.70;98.30;;;0.12;98.82;98448.25;4976427;28;20526;-75
2022/04/04 01:40:06;;;;;;;4.13;3.73;;;-0.60;98.40;;;0.14;98.60;98455.88;4975550;28;20471;-74
2022/04/04 01:42:37;;;;;;;3.80;3.37;;;-0.70;98.40;;;0.13;99.01;98457.63;4973230;28;20460;-75
2022/04/04 01:45:11;;;;;;;5.03;3.70;;;-0.70;98.30;;;0.14;98.93;98461.03;4975455;28;20483;-74
2022/04/04 01:47:41;;;;;;;5.47;3.80;;;-0.60;98.30;;;0.09;98.10;98451.06;4976160;28;20498;-74
2022/04/04 01:50:11;;;;;;;4.37;3.10;;;-0.60;98.20;;;0.08;98.70;98449.41;4976128;28;20500;-74
2022/04/04 01:52:39;;;;;;;5.90;4.27;;;-0.70;98.50;;;0.08;98.90;98448.59;4974691;28;20541;-75
2022/04/04 01:55:11;;;;;;;5.70;3.80;;;-0.70;98.20;;;0.07;98.91;98442.63;4975596;28;20924;-74
2022/04/04 01:57:42;;;;;;;4.10;3.70;;;-0.70;98.40;;;0.06;98.59;98443.59;4976153;28;20482;-74
2022/04/04 02:00:13;;;;;;;4.37;3.70;;;-0.70;98.40;;;0.03;98.28;98441.25;4981281;28;20521;-75
2022/04/04 02:02:42;;;;;;;5.83;3.70;;;-0.80;98.00;;;0.01;98.55;98437.94;4977887;28;20473;-75
2022/04/04 02:05:12;;;;;;;5.40;3.83;;;-0.80;98.30;;;-0.01;99.69;98439.81;4977883;28;20591;-74
2022/04/04 02:07:42;;;;;;;4.17;3.77;;;-0.80;98.50;;;-0.04;99.91;98445.19;4979652;28;20467;-74
2022/04/04 02:10:14;;;;;;;6.73;4.70;;;-0.90;98.60;;;-0.05;100.00;98438.38;4978787;28;20816;-74
2022/04/04 02:12:44;;;;;;;4.13;3.73;;;-0.90;98.70;;;-0.08;99.82;98436.88;4982306;28;20992;-75
2022/04/04 02:15:13;;;;;;;3.90;3.50;;;-0.90;98.50;;;-0.11;98.95;98437.09;4982450;28;20464;-75
2022/04/04 02:17:44;;;;;;;5.80;3.57;;;-0.80;98.20;;;-0.14;99.82;98439.06;4978462;28;20460;-74
2022/04/04 02:20:14;;;;;;;6.73;4.10;;;-0.90;98.50;;;-0.16;99.75;98436.59;4980973;28;20472;-74
2022/04/04 02:22:44;;;;;;;4.53;3.80;;;-1.00;98.50;;;-0.22;99.85;98436.22;4976599;28;20510;-74
2022/04/04 02:25:16;;;;;;;4.10;3.70;;;-1.00;98.70;;;-0.21;100.00;98430.16;4978552;28;20490;-74
2022/04/04 02:27:46;;;;;;;4.03;3.50;;;-1.00;98.80;;;-0.25;100.00;98421.03;4976411;28;20467;-75
2022/04/04 02:30:15;;;;;;;6.63;4.30;;;-1.00;98.80;;;-0.22;100.00;98431.09;4975891;28;20523;-74
2022/04/04 02:32:44;;;;;;;3.93;3.50;;;-1.00;99.00;;;-0.25;100.00;98418.47;4977482;28;21101;-74
2022/04/04 02:35:13;;;;;;;6.97;3.47;;;-1.10;98.70;;;-0.35;100.00;98420.06;4977998;28;21067;-74
2022/04/04 02:37:43;;;;;;;5.13;4.20;;;-1.00;98.60;;;-0.40;100.00;98422.13;4976403;28;20985;-74
2022/04/04 02:40:14;;;;;;;9.90;4.07;;;-1.20;99.00;;;-0.41;100.00;98420.47;4978015;28;20464;-74
2022/04/04 02:42:44;;;;;;;8.37;4.40;;;-1.20;99.00;;;-0.41;100.00;98420.47;4977513;28;20523;-75
2022/04/04 02:45:14;;;;;;;9.67;4.23;;;-1.30;98.90;;;-0.40;100.00;98419.53;4976409;28;20497;-75
2022/04/04 02:47:43;;;;;;;5.30;4.07;;;-1.30;99.00;;;-0.42;100.00;98419.69;4976899;28;20495;-74
2022/04/04 02:50:15;;;;;;;5.20;4.53;;;-1.20;98.80;;;-0.44;100.00;98420.69;4978617;28;20475;-74
2022/04/04 02:52:47;;;;;;;4.00;3.60;;;-1.20;98.80;;;-0.47;100.00;98414.03;4976529;28;20460;-75
2022/04/04 02:58:05;;;;;;;5.57;4.20;;;-1.20;98.80;;;-0.53;100.00;98415.31;4973313;28;20465;-74
2022/04/04 03:00:35;;;;;;;7.50;4.77;;;-1.30;98.80;;;-0.55;100.00;98408.59;4977977;28;20574;-74
2022/04/04 03:03:05;;;;;;;5.97;4.27;;;-1.30;99.10;;;-0.54;100.00;98408.50;4976848;28;20459;-74
2022/04/04 03:05:34;;;;;;;4.93;4.00;;;-1.30;99.40;;;-0.54;100.00;98408.50;4977747;28;20508;-74
2022/04/04 03:08:04;;;;;;;6.20;4.40;;;-1.30;99.30;;;-0.56;100.00;98407.81;4976845;28;20620;-74
2022/04/04 03:10:36;;;;;;;5.73;4.40;;;-1.30;99.10;;;-0.54;100.00;98410.25;4975964;28;20474;-74
2022/04/04 03:13:06;;;;;;;5.50;3.93;;;-1.40;99.30;;;-0.53;100.00;98407.59;4977204;28;20503;-74
2022/04/04 03:15:37;;;;;;;7.90;4.40;;;-1.40;99.30;;;-0.52;100.00;98406.66;4976724;28;20452;-75
2022/04/04 03:18:07;;;;;;;3.90;3.37;;;-1.40;99.30;;;-0.52;100.00;98401.50;4979140;28;20460;-74
2022/04/04 03:20:36;;;;;;;7.20;4.00;;;-1.40;99.20;;;-0.56;100.00;98397.53;4978962;28;20470;-74
2022/04/04 03:23:07;;;;;;;4.73;3.80;;;-1.30;99.00;;;-0.60;100.00;98392.72;4979057;28;20544;-74
2022/04/04 03:25:38;;;;;;;5.07;3.70;;;-1.40;99.10;;;-0.59;100.00;98391.81;4977776;28;20707;-74
2022/04/04 03:28:09;;;;;;;8.60;4.13;;;-1.40;99.20;;;-0.70;100.00;98390.00;4978061;28;20979;-74
2022/04/04 03:30:40;;;;;;;5.70;4.03;;;-1.50;99.10;;;-0.76;100.00;98387.00;4974343;28;21008;-74
2022/04/04 03:33:10;;;;;;;3.93;3.60;;;-1.50;99.10;;;-0.81;100.00;98379.66;4976100;28;20880;-74
2022/04/04 03:35:39;;;;;;;7.90;4.47;;;-1.50;99.10;;;-0.84;100.00;98369.63;4972633;28;24665;-75
2022/04/04 03:38:10;;;;;;;5.83;4.00;;;-1.50;99.30;;;-0.87;100.00;98371.59;4970945;28;20537;-74
2022/04/04 03:40:41;;;;;;;6.37;4.20;;;-1.60;99.20;;;-0.84;100.00;98371.34;4976968;28;20561;-74
2022/04/04 03:43:11;;;;;;;5.13;4.30;;;-1.60;99.60;;;-0.82;100.00;98369.50;4973760;28;20462;-74
2022/04/04 03:45:40;;;;;;;6.80;4.27;;;-1.60;99.70;;;-0.81;100.00;98369.41;4978775;28;20512;-74
2022/04/04 03:48:11;;;;;;;6.63;4.80;;;-1.60;99.40;;;-0.79;100.00;98359.00;4979839;28;20780;-74
2022/04/04 03:50:43;;;;;;;7.77;4.60;;;-1.60;99.50;;;-0.80;100.00;98360.75;4976750;28;20712;-74
2022/04/04 03:53:12;;;;;;;6.37;4.17;;;-1.70;99.40;;;-0.78;100.00;98358.09;4975645;28;20556;-74
2022/04/04 03:55:44;;;;;;;4.63;4.10;;;-1.70;99.50;;;-0.85;100.00;98349.19;4976718;28;21047;-74
2022/04/04 03:58:13;;;;;;;4.67;3.93;;;-1.60;99.20;;;-0.87;100.00;98358.75;4972045;28;20509;-75
2022/04/04 04:00:43;;;;;;;5.00;4.50;;;-1.60;99.30;;;-0.87;100.00;98346.75;4975863;28;20463;-74
2022/04/04 04:03:13;;;;;;;6.22;5.10;;;-1.70;99.70;;;-0.82;100.00;98349.78;4973960;28;20966;-74
2022/04/04 04:05:42;;;;;;;7.10;4.37;;;-1.70;99.60;;;-0.82;100.00;98343.81;4975342;28;20910;-74
2022/04/04 04:08:12;;;;;;;4.80;4.30;;;-1.70;99.60;;;-0.82;100.00;98344.66;4976903;28;20474;-80
2022/04/04 04:10:44;;;;;;;8.20;4.20;;;-1.70;99.70;;;-0.80;100.00;98337.66;4973577;28;21531;-74
2022/04/04 04:13:15;;;;;;;5.83;4.53;;;-1.70;99.70;;;-0.80;100.00;98342.78;4973657;28;20479;-74
2022/04/04 04:15:45;;;;;;;5.23;4.70;;;-1.70;99.50;;;-0.81;100.00;98343.72;4971243;28;20463;-74
2022/04/04 04:18:15;;;;;;;4.97;4.47;;;-1.60;99.50;;;-0.80;100.00;98342.78;4976310;28;20476;-74
2022/04/04 04:20:45;;;;;;;6.70;4.80;;;-1.70;99.60;;;-0.84;100.00;98336.25;4973729;28;20503;-74
2022/04/04 04:23:16;;;;;;;5.33;4.30;;;-1.60;99.20;;;-0.89;100.00;98333.19;4975288;28;21071;-74
2022/04/04 04:25:47;;;;;;;6.73;4.77;;;-1.60;99.60;;;-0.90;100.00;98335.88;4973942;28;20518;-74
2022/04/04 04:28:16;;;;;;;5.63;4.70;;;-1.70;99.50;;;-0.93;100.00;98334.31;4976057;28;20460;-75
2022/04/04 04:30:45;;;;;;;5.53;4.17;;;-1.70;99.50;;;-0.94;100.00;98335.25;4972984;28;20502;-74
2022/04/04 04:33:17;;;;;;;8.80;5.20;;;-1.70;99.30;;;-0.97;100.00;98330.31;4974847;28;20649;-80
2022/04/04 04:35:47;;;;;;;8.53;5.70;;;-1.70;99.40;;;-0.98;100.00;98323.56;4972621;28;20478;-74
2022/04/04 04:38:17;;;;;;;7.70;4.90;;;-1.80;99.40;;;-1.00;100.00;98330.53;4977892;28;20708;-74
2022/04/04 04:40:50;;;;;;;8.50;5.20;;;-1.80;99.50;;;-1.04;100.00;98331.69;4979392;28;20853;-74
2022/04/04 04:43:20;;;;;;;6.53;4.53;;;-1.80;99.50;;;-1.05;100.00;98328.31;4979884;28;20457;-75
2022/04/04 04:45:51;;;;;;;7.10;4.30;;;-1.90;99.60;;;-1.07;100.00;98322.47;4979467;28;20461;-75
2022/04/04 04:48:21;;;;;;;5.10;3.83;;;-1.90;99.60;;;-1.06;100.00;98325.84;4979963;28;20556;-74
2022/04/04 04:50:52;;;;;;;5.03;4.50;;;-1.80;99.60;;;-1.08;100.00;98332.84;4979357;28;20447;-75
2022/04/04 04:53:21;;;;;;;5.73;4.30;;;-1.90;99.70;;;-1.15;100.00;98323.94;4980245;28;20963;-75
2022/04/04 04:55:53;;;;;;;8.93;5.00;;;-1.90;99.50;;;-1.19;100.00;98320.78;4977947;28;20428;-75
2022/04/04 04:58:25;;;;;;;7.60;5.40;;;-2.00;99.90;;;-1.16;100.00;98318.00;4979552;28;20501;-75
2022/04/04 05:00:55;;;;;;;4.70;4.20;;;-2.00;99.90;;;-1.18;100.00;98316.47;4975257;28;21003;-75
2022/04/04 05:03:26;;;;;;;6.77;4.83;;;-2.00;99.90;;;-1.17;100.00;98307.81;4976826;28;20506;-75
2022/04/04 05:05:55;;;;;;;6.27;5.13;;;-2.10;99.90;;;-1.14;100.00;98302.47;4977440;28;20454;-75
2022/04/04 05:08:24;;;;;;;12.00;4.17;;;-2.00;99.90;;;-1.16;100.00;98310.28;4973921;28;20512;-74
2022/04/04 05:10:56;;;;;;;7.93;5.00;;;-1.90;99.70;;;-1.19;100.00;98307.94;4975654;28;20465;-75
2022/04/04 05:13:27;;;;;;;8.57;4.20;;;-1.90;99.60;;;-1.17;100.00;98307.81;4973272;28;20845;-74
2022/04/04 05:15:58;;;;;;;6.53;4.70;;;-1.90;99.80;;;-1.17;100.00;98300.13;4973765;28;20468;-74
2022/04/04 05:18:28;;;;;;;13.87;4.40;;;-1.90;99.90;;;-1.15;100.00;98308.56;4974697;28;20826;-74
2022/04/04 05:20:58;;;;;;;9.13;4.80;;;-1.90;99.90;;;-1.14;100.00;98310.16;4973085;28;20477;-75
2022/04/04 05:23:29;;;;;;;5.63;4.97;;;-1.90;99.90;;;-1.17;100.00;98300.13;4975292;28;20490;-75
2022/04/04 05:26:00;;;;;;;5.80;4.53;;;-1.80;99.80;;;-1.18;100.00;98301.06;4973758;28;20467;-74
2022/04/04 05:28:30;;;;;;;5.53;4.30;;;-1.90;99.90;;;-1.17;100.00;98297.56;4970808;28;20599;-74
2022/04/04 05:31:01;;;;;;;7.40;5.13;;;-2.00;99.90;;;-1.14;100.00;98297.34;4974624;28;21049;-79
2022/04/04 05:33:31;;;;;;;6.60;5.40;;;-1.80;99.90;;;-1.16;100.00;98297.47;4972954;28;20458;-75
2022/04/04 05:36:01;;;;;;;7.17;4.83;;;-1.80;99.90;;;-1.14;100.00;98289.66;4976994;28;20472;-75
2022/04/04 05:38:32;;;;;;;7.20;5.13;;;-1.90;99.90;;;-1.12;100.00;98290.38;4974442;28;20498;-74
2022/04/04 05:41:02;;;;;;;7.67;5.10;;;-1.90;99.90;;;-1.09;100.00;98292.72;4973825;28;20446;-74
2022/04/04 05:43:32;;;;;;;6.40;5.03;;;-1.90;99.90;;;-1.10;100.00;98293.63;4968178;28;20467;-75
2022/04/04 05:46:01;;;;;;;7.47;5.20;;;-1.80;99.90;;;-1.09;100.00;98285.84;4973981;28;20970;-75
2022/04/04 05:48:34;;;;;;;8.77;5.93;;;-1.70;99.90;;;-1.10;100.00;98288.50;4971009;28;20475;-75
2022/04/04 05:51:04;;;;;;;8.80;5.57;;;-1.70;99.90;;;-1.08;100.00;98284.91;4971860;28;20807;-74
2022/04/04 05:53:39;;;;;;;9.77;5.60;;;-1.80;99.90;;;-1.05;100.00;98291.59;4971400;28;20995;-75
2022/04/04 05:56:11;;;;;;;7.07;5.30;;;-1.80;99.90;;;-1.04;100.00;98288.88;4972943;28;20965;-75
2022/04/04 05:58:41;;;;;;;7.07;5.50;;;-1.70;99.90;;;-1.01;100.00;98293.00;4972103;28;20910;-75
2022/04/04 06:01:11;;;;;;;23.17;6.07;;;-1.70;99.90;;;-0.99;100.00;98286.00;4972956;28;20474;-75
2022/04/04 06:03:42;;;;;;;12.10;6.53;;;-1.80;99.90;;;-0.93;100.00;98280.44;4972243;28;20444;-74
2022/04/04 06:06:12;;;;;;;9.67;5.93;;;-1.70;99.90;;;-0.89;100.00;98281.84;4974107;28;20517;-75
2022/04/04 06:08:41;;;;;;;8.57;5.50;;;-1.70;99.90;;;-0.86;100.00;98280.81;4970374;28;20588;-75
2022/04/04 06:11:13;;;;;;;7.90;5.30;;;-1.60;99.90;;;-0.82;100.00;98283.06;4973753;28;20466;-74
2022/04/04 06:13:45;;;;;;;8.03;5.77;;;-1.60;99.90;;;-0.80;100.00;98281.19;4973144;28;20501;-74
2022/04/04 06:16:15;;;;;;;20.63;6.57;;;-1.50;99.90;;;-0.80;100.00;98283.75;4976661;28;21104;-75
2022/04/04 06:18:44;;;;;;;7.40;5.60;;;-1.50;99.90;;;-0.75;100.00;98284.25;4972914;28;20482;-74
2022/04/04 06:21:15;;;;;;;9.27;6.07;;;-1.50;99.90;;;-0.72;100.00;98280.63;4971271;28;20869;-75
2022/04/04 06:23:48;;;;;;;6.40;5.27;;;-1.40;99.90;;;-0.69;100.00;98278.66;4972348;28;20491;-74
2022/04/04 06:26:22;;;;;;;9.30;6.23;;;-1.40;99.90;;;-0.67;100.00;98279.38;4971713;28;20515;-74
2022/04/04 06:28:52;;;;;;;10.17;5.73;;;-1.30;99.90;;;-0.65;100.00;98269.81;4972081;28;20511;-74
2022/04/04 06:31:21;;;;;;;11.10;5.67;;;-1.30;99.90;;;-0.61;100.00;98271.22;4972672;28;20571;-74
2022/04/04 06:33:51;;;;;;;8.30;5.90;;;-1.30;99.90;;;-0.57;100.00;98271.81;4972342;28;20477;-75
2022/04/04 06:36:23;;;;;;;9.00;5.87;;;-1.30;99.90;;;-0.52;100.00;98269.72;4973118;28;20524;-74
2022/04/04 06:38:53;;;;;;;11.77;6.30;;;-1.20;99.90;;;-0.48;100.00;98268.56;4972938;28;20756;-74
2022/04/04 06:41:23;;;;;;;7.83;6.03;;;-1.20;99.90;;;-0.42;100.00;98264.75;4973322;28;20474;-74
2022/04/04 06:43:55;;;;;;;13.53;6.97;;;-1.20;99.90;;;-0.35;100.00;98260.81;4969660;28;20469;-75
2022/04/04 06:46:26;;;;;;;10.73;7.33;;;-1.20;99.90;;;-0.29;100.00;98260.34;4977375;28;20452;-75
2022/04/04 06:48:57;;;;;;;13.10;7.60;;;-1.00;99.90;;;-0.23;100.00;98255.56;4976495;28;21141;-75
2022/04/04 06:51:27;;;;;;;12.63;7.17;;;-0.90;99.90;;;-0.15;100.00;98252.41;4976686;28;20463;-75
2022/04/04 06:53:58;;;;;;;12.97;7.40;;;-0.90;99.90;;;-0.09;100.00;98257.09;4977342;28;20475;-75
2022/04/04 06:56:30;;;;;;;13.40;8.20;;;-0.90;99.90;;;-0.02;100.00;98248.00;4977300;28;20992;-75
2022/04/04 06:58:59;;;;;;;9.23;6.60;;;-0.70;99.90;;;0.05;100.00;98232.91;4974132;28;20967;-74
2022/04/04 07:01:31;;;;;;;8.93;6.73;;;-0.60;99.90;;;0.11;100.00;98238.41;4976177;28;20557;-75
2022/04/04 07:04:00;;;;;;;7.77;5.50;;;-0.50;99.90;;;0.19;100.00;98230.94;4976639;28;20676;-75
2022/04/04 07:06:31;;;;;;;13.90;5.77;;;-0.40;99.90;;;0.26;100.00;98226.97;4976049;28;20464;-75
2022/04/04 07:09:00;;;;;;;13.03;6.20;;;-0.40;99.40;;;0.36;100.00;98216.78;4978196;28;21044;-75
2022/04/04 07:11:33;;;;;;;6.27;5.63;;;-0.20;99.60;;;0.43;100.00;98212.78;4978740;28;20463;-75
2022/04/04 07:14:03;;;;;;;8.30;5.70;;;-0.10;99.10;;;0.52;100.00;98218.03;4977286;28;21011;-74
2022/04/04 07:16:33;;;;;;;8.73;5.97;;;-0.10;98.30;;;0.61;100.00;98216.50;4976043;28;20465;-75
2022/04/04 07:19:02;;;;;;;5.10;4.60;;;0.10;98.90;;;0.68;100.00;98215.06;4974661;28;20890;-75
2022/04/04 07:21:32;;;;;;;8.60;5.37;;;0.10;98.70;;;0.77;100.00;98216.09;4975487;28;20500;-76
2022/04/04 07:24:01;;;;;;;8.00;5.40;;;0.20;98.90;;;0.83;100.00;98215.63;4974742;28;20854;-75
2022/04/04 07:26:32;;;;;;;5.83;5.17;;;0.30;98.40;;;0.94;98.66;98213.00;4976144;28;20506;-75
2022/04/04 07:29:02;;;;;;;5.17;4.60;;;0.50;97.50;;;1.02;95.78;98205.47;4975182;28;20998;-76
2022/04/04 07:31:32;;;;;;;6.37;4.73;;;0.40;96.90;;;1.13;96.19;98199.47;4974727;28;20473;-75
2022/04/04 07:34:02;;;;;;;7.43;4.83;;;0.50;97.40;;;1.22;96.32;98196.94;4976696;28;20616;-75
2022/04/04 07:36:31;;;;;;;9.43;4.47;;;0.60;96.90;;;1.31;93.77;98191.06;4977855;28;20473;-75
2022/04/04 07:39:02;;;;;;;7.57;4.63;;;0.70;96.60;;;1.42;93.36;98195.34;4976884;28;20973;-75
2022/04/04 07:41:33;;;;;;;6.17;5.10;;;0.80;96.60;;;1.52;92.79;98189.31;4974092;28;21048;-75
2022/04/04 07:44:05;;;;;;;5.20;4.47;;;1.00;96.60;;;1.63;92.21;98187.59;4974732;28;21284;-75
2022/04/04 07:46:35;;;;;;;4.37;3.83;;;1.10;96.60;;;1.77;91.10;98187.25;4975208;28;20460;-75
2022/04/04 07:49:04;;;;;;;5.83;4.40;;;1.20;96.30;;;1.88;89.74;98184.56;4978624;28;21041;-76
2022/04/04 07:51:34;;;;;;;6.47;3.93;;;1.30;95.80;;;1.99;85.89;98177.56;4978936;28;20461;-75
2022/04/04 07:54:04;;;;;;;7.03;4.07;;;1.40;94.90;;;2.11;86.09;98175.72;4979050;28;20813;-75
2022/04/04 07:56:35;;;;;;;5.27;4.20;;;1.60;95.10;;;2.23;85.83;98166.94;4978690;28;20444;-75
2022/04/04 07:59:06;;;;;;;5.20;3.97;;;1.80;95.20;;;2.34;85.64;98155.69;4979648;28;21031;-75
2022/04/04 08:01:37;;;;;;;5.10;3.80;;;1.90;95.10;;;2.44;83.56;98156.50;4979711;28;20465;-75
2022/04/04 08:04:12;;;;;;;5.00;3.70;;;2.00;94.50;;;2.55;82.16;98153.81;4977388;28;20652;-75
2022/04/04 08:06:42;;;;;;;3.80;3.33;;;2.10;94.30;;;2.63;80.50;98158.31;4976630;28;20457;-75
2022/04/04 08:09:12;;;;;;;7.23;3.70;;;2.10;93.60;;;2.69;78.12;98142.28;4974471;28;20508;-75
2022/04/04 08:11:42;;;;;;;8.33;3.83;;;2.10;93.20;;;2.77;78.05;98142.44;4973854;28;20521;-75
2022/04/04 08:14:13;;;;;;;6.13;4.23;;;2.20;93.10;;;2.86;77.91;98141.59;4973808;28;20474;-75
2022/04/04 08:16:44;;;;;;;4.27;3.33;;;2.40;93.10;;;2.94;77.41;98136.59;4974664;28;20995;-76
2022/04/04 08:19:15;;;;;;;6.23;3.80;;;2.50;93.10;;;2.98;76.35;98131.03;4975803;28;20972;-75
2022/04/04 08:21:45;;;;;;;5.70;3.47;;;2.50;92.70;;;3.05;74.90;98131.28;4972403;28;20459;-75
2022/04/04 08:24:16;;;;;;;5.47;3.60;;;2.50;92.40;;;3.12;74.79;98132.34;4973956;28;20882;-75
2022/04/04 08:26:48;;;;;;;3.60;2.90;;;2.60;92.60;;;3.15;74.78;98129.50;4974915;28;20466;-76
2022/04/04 08:29:20;;;;;;;5.80;3.77;;;2.70;92.50;;;3.23;73.89;98136.56;4974622;28;20597;-75
2022/04/04 08:31:49;;;;;;;7.23;3.03;;;2.80;92.30;;;3.25;72.63;98132.88;4972980;28;20505;-75
2022/04/04 08:34:19;;;;;;;4.23;3.83;;;2.70;92.00;;;3.30;73.05;98124.69;4975180;28;20471;-75
2022/04/04 08:36:48;;;;;;;4.30;3.40;;;2.80;92.40;;;3.32;72.05;98123.63;4971524;28;20468;-75
2022/04/04 08:39:19;;;;;;;4.67;3.80;;;2.70;92.10;;;3.39;72.43;98114.34;4971777;28;20469;-75
2022/04/04 08:41:50;;;;;;;3.60;3.30;;;2.90;92.20;;;3.48;72.70;98120.44;4973967;28;20496;-75
2022/04/04 08:44:22;;;;;;;3.93;3.53;;;3.00;92.40;;;3.55;72.31;98100.81;4976076;28;20475;-75
2022/04/04 08:46:52;;;;;;;4.83;3.60;;;3.10;92.20;;;3.62;71.49;98094.13;4974855;28;20463;-76
2022/04/04 08:49:24;;;;;;;5.63;3.63;;;3.10;91.90;;;3.66;71.04;98094.66;4973229;28;21097;-75
2022/04/04 08:51:54;;;;;;;15.60;4.07;;;3.10;91.70;;;3.77;71.11;98079.78;4974850;28;20497;-76
2022/04/04 08:54:25;;;;;;;5.70;3.70;;;3.30;92.00;;;3.85;71.57;98084.25;4970583;28;20554;-76
2022/04/04 08:56:57;;;;;;;5.37;3.70;;;3.40;92.10;;;3.94;71.34;98078.19;4975316;28;21017;-75
2022/04/04 08:59:27;;;;;;;63.17;27.50;;;3.50;92.20;;;4.00;70.56;98077.59;4973759;28;20463;-82
2022/04/04 09:01:58;;;;;;;4.67;4.00;;;3.50;91.90;;;4.08;70.41;98059.59;4975780;28;20472;-75
2022/04/04 09:04:29;;;;;;;8.00;3.57;;;3.80;91.90;;;4.14;69.54;98058.19;4973020;28;20859;-75
2022/04/04 09:07:04;;;;;;;6.10;4.30;;;3.70;91.40;;;4.17;69.80;98057.88;4971222;28;20464;-75
2022/04/04 09:09:41;;;;;;;11.70;4.87;;;3.70;91.50;;;4.23;69.34;98065.91;4975751;28;20588;-75
2022/04/04 09:12:15;;;;;;;3.57;2.93;;;3.70;91.40;;;4.27;68.99;98053.47;4973960;28;20459;-75
2022/04/04 09:14:47;;;;;;;6.10;4.13;;;3.70;91.50;;;4.34;68.72;98055.31;4976582;28;20972;-76
2022/04/04 09:17:19;;;;;;;6.03;4.20;;;3.80;91.50;;;4.45;69.24;98049.91;4975855;28;20886;-76
2022/04/04 09:19:49;;;;;;;2.27;2.00;;;4.00;91.80;;;4.53;68.88;98050.00;4977358;28;20466;-76
2022/04/04 09:22:20;;;;;;;4.60;3.63;;;4.00;91.60;;;4.62;68.64;98044.91;4975874;28;20551;-76
2022/04/04 09:24:55;;;;;;;5.67;4.37;;;4.10;91.60;;;4.73;67.98;98042.88;4973816;28;20964;-76
2022/04/04 09:27:30;;;;;;;4.50;3.23;;;4.30;91.50;;;4.78;68.13;98030.28;4969000;28;20471;-76
2022/04/04 09:30:04;;;;;;;5.57;4.00;;;4.30;91.40;;;4.84;67.54;98036.63;4970032;28;20579;-75
2022/04/04 09:32:40;;;;;;;5.67;4.73;;;4.40;91.50;;;4.96;67.32;98019.88;4975856;28;20468;-76
2022/04/04 09:35:14;;;;;;;7.93;4.07;;;4.50;91.50;;;5.05;66.86;98024.16;4977655;28;20499;-76
2022/04/04 09:37:47;;;;;;;6.83;3.90;;;4.60;91.40;;;5.12;66.35;98004.44;4976383;28;20539;-76
2022/04/04 09:40:20;;;;;;;4.40;3.93;;;4.60;90.90;;;5.19;66.75;98015.00;4976666;28;20442;-75
2022/04/04 09:43:01;;;;;;;2.67;2.50;;;4.70;91.00;;;5.18;65.33;98009.00;4975225;28;20451;-76
2022/04/04 09:45:32;;;;;;;4.97;3.67;;;4.60;90.40;;;5.24;65.52;98000.59;4977689;28;20565;-76
2022/04/04 09:48:04;;;;;;;4.70;3.70;;;4.70;90.90;;;5.32;65.67;98000.63;4975347;28;20460;-75
2022/04/04 09:50:44;;;;;;;7.67;3.63;;;4.80;91.00;;;5.33;64.37;97998.88;4976884;28;20502;-76
2022/04/04 09:53:17;;;;;;;3.97;3.07;;;4.80;90.40;;;5.32;63.76;97990.28;4977883;28;20500;-76
2022/04/04 09:55:49;;;;;;;4.07;3.67;;;4.70;90.30;;;5.41;64.88;97989.34;4977396;28;20495;-75
2022/04/04 09:58:22;;;;;;;4.53;3.70;;;4.80;90.60;;;5.48;62.96;97990.31;4976909;28;20457;-75
2022/04/04 10:00:52;;;;;;;3.90;3.40;;;4.90;90.10;;;5.55;63.91;97975.78;4977834;28;20452;-76
2022/04/04 10:03:24;;;;;;;4.20;3.80;;;5.00;90.40;;;5.68;63.34;97979.72;4977422;28;20491;-75
2022/04/04 10:05:57;;;;;;;5.37;3.90;;;5.10;90.20;;;5.77;62.47;97983.94;4976057;28;20452;-75
2022/04/04 10:08:29;;;;;;;5.80;3.90;;;5.20;90.00;;;5.78;61.65;97980.38;4974829;28;20455;-75
2022/04/04 10:11:01;;;;;;;5.97;3.40;;;5.20;89.30;;;5.79;62.24;97962.09;4974234;28;20486;-75
2022/04/04 10:13:34;;;;;;;4.70;3.40;;;5.20;89.90;;;5.90;62.46;97963.59;4977241;28;20835;-75
2022/04/04 10:16:05;;;;;;;6.17;3.43;;;5.40;90.00;;;5.94;61.09;97954.50;4976214;28;20444;-75
2022/04/04 10:18:36;;;;;;;5.90;3.63;;;5.40;88.90;;;6.05;61.26;97949.00;4977817;28;20483;-75
2022/04/04 10:21:06;;;;;;;3.87;3.43;;;5.50;89.40;;;6.14;60.76;97937.66;4981452;28;20475;-76
2022/04/04 10:23:38;;;;;;;4.10;3.10;;;5.70;88.90;;;6.19;60.81;97937.16;4980422;28;20472;-76
2022/04/04 10:26:09;;;;;;;4.50;3.37;;;5.70;88.70;;;6.28;59.96;97939.59;4978978;28;20535;-76
2022/04/04 10:28:44;;;;;;;3.87;2.93;;;5.80;88.50;;;6.29;58.71;97937.81;4980281;28;20467;-75
2022/04/04 10:31:17;;;;;;;5.27;3.67;;;5.80;86.40;;;6.34;57.85;97917.38;4976504;28;20863;-75
2022/04/04 10:33:48;;;;;;;3.33;3.03;;;5.80;86.70;;;6.38;56.30;97929.88;4973892;28;20584;-75
2022/04/04 10:36:25;;;;;;;3.67;3.07;;;5.90;85.10;;;6.39;56.87;97910.69;4980548;28;20440;-75
2022/04/04 10:38:56;;;;;;;5.97;3.50;;;5.90;85.00;;;6.43;56.86;97904.22;4980489;28;20432;-75